createdAt,value
2023-04-03T00:01:18.121Z,7.10
2023-04-03T00:03:46.331Z,7.10
2023-04-03T00:06:15.134Z,6.90
2023-04-03T00:08:43.316Z,6.90
2023-04-03T00:11:12.870Z,6.80
2023-04-03T00:13:41.734Z,6.80
2023-04-03T00:16:11.282Z,6.80
2023-04-03T00:18:40.615Z,6.80
2023-04-03T00:21:09.915Z,6.80
2023-04-03T00:23:38.138Z,6.90
2023-04-03T00:26:06.748Z,6.80
2023-04-03T00:28:36.250Z,6.90
2023-04-03T00:31:04.597Z,6.80
2023-04-03T00:33:32.834Z,6.80
2023-04-03T00:36:01.047Z,6.80
2023-04-03T00:38:29.246Z,6.80
2023-04-03T00:40:57.409Z,6.70
2023-04-03T00:43:27.464Z,6.70
2023-04-03T00:45:58.687Z,6.80
2023-04-03T00:48:31.202Z,6.60
2023-04-03T00:50:59.950Z,6.70
2023-04-03T00:53:32.657Z,6.80
2023-04-03T00:56:02.161Z,6.80
2023-04-03T00:58:42.030Z,6.80
2023-04-03T01:01:16.813Z,6.80
2023-04-03T01:03:45.006Z,6.80
2023-04-03T01:06:13.905Z,6.70
2023-04-03T01:08:42.151Z,6.60
2023-04-03T01:11:10.411Z,6.30
2023-04-03T01:13:38.518Z,6.30
2023-04-03T01:16:07.841Z,6.30
2023-04-03T01:18:40.746Z,6.30
2023-04-03T01:21:32.968Z,6.30
2023-04-03T01:24:13.886Z,6.30
2023-04-03T01:26:42.257Z,6.30
2023-04-03T01:29:10.470Z,6.30
2023-04-03T01:31:52.831Z,6.40
2023-04-03T01:34:21.574Z,6.40
2023-04-03T01:36:49.951Z,6.40
2023-04-03T01:39:18.452Z,6.40
2023-04-03T01:41:47.347Z,6.40
2023-04-03T01:44:15.836Z,6.40
2023-04-03T01:46:44.095Z,6.50
2023-04-03T01:49:13.618Z,6.50
2023-04-03T01:51:41.760Z,6.40
2023-04-03T01:54:09.870Z,6.40
2023-04-03T01:56:38.291Z,6.30
2023-04-03T01:59:06.523Z,6.30
2023-04-03T02:01:34.818Z,6.30
2023-04-03T02:04:03.079Z,6.30
2023-04-03T02:06:32.704Z,6.30
2023-04-03T02:09:01.002Z,6.20
2023-04-03T02:11:29.182Z,6.10
2023-04-03T02:13:57.338Z,6.30
2023-04-03T02:16:25.554Z,6.30
2023-04-03T02:18:53.733Z,6.30
2023-04-03T02:21:21.860Z,6.30
2023-04-03T02:23:51.508Z,6.30
2023-04-03T02:26:19.752Z,6.30
2023-04-03T02:28:47.982Z,6.10
2023-04-03T02:31:16.612Z,6.10
2023-04-03T02:33:44.934Z,6.00
2023-04-03T02:36:13.233Z,6.00
2023-04-03T02:38:41.487Z,6.00
2023-04-03T02:41:13.476Z,6.00
2023-04-03T02:43:41.744Z,6.00
2023-04-03T02:46:10.624Z,6.10
2023-04-03T02:48:39.168Z,6.10
2023-04-03T02:51:07.845Z,6.10
2023-04-03T02:53:36.150Z,6.00
2023-04-03T02:56:04.351Z,6.00
2023-04-03T02:58:33.913Z,5.90
2023-04-03T03:01:02.132Z,5.90
2023-04-03T03:03:30.400Z,5.90
2023-04-03T03:06:05.534Z,5.80
2023-04-03T03:08:33.774Z,5.80
2023-04-03T03:11:01.932Z,5.80
2023-04-03T03:13:30.256Z,5.80
2023-04-03T03:16:00.117Z,5.80
2023-04-03T03:18:28.304Z,5.80
2023-04-03T03:20:58.285Z,5.90
2023-04-03T03:23:28.136Z,5.90
2023-04-03T03:25:58.473Z,5.90
2023-04-03T03:28:26.985Z,5.90
2023-04-03T03:30:55.473Z,6.00
2023-04-03T03:33:25.062Z,5.90
2023-04-03T03:35:54.389Z,6.00
2023-04-03T03:38:22.953Z,6.00
2023-04-03T03:40:52.161Z,6.10
2023-04-03T03:43:21.172Z,6.10
2023-04-03T03:45:53.145Z,6.10
2023-04-03T03:48:21.925Z,6.10
2023-04-03T03:50:51.897Z,6.20
2023-04-03T03:53:20.326Z,6.10
2023-04-03T03:55:48.458Z,6.10
2023-04-03T03:58:16.641Z,6.00
2023-04-03T04:00:44.812Z,6.00
2023-04-03T04:03:13.045Z,5.90
2023-04-03T04:05:41.384Z,5.90
2023-04-03T04:08:11.147Z,6.00
2023-04-03T04:10:40.423Z,6.00
2023-04-03T04:13:08.542Z,6.00
2023-04-03T04:15:36.986Z,6.10
2023-04-03T04:18:05.779Z,6.20
2023-04-03T04:20:33.988Z,6.10
2023-04-03T04:23:02.197Z,6.10
2023-04-03T04:25:31.783Z,6.10
2023-04-03T04:27:59.920Z,6.20
2023-04-03T04:30:28.540Z,6.10
2023-04-03T04:32:57.118Z,6.10
2023-04-03T04:35:25.558Z,6.20
2023-04-03T04:37:53.704Z,6.20
2023-04-03T04:40:21.822Z,6.10
2023-04-03T04:42:51.458Z,6.10
2023-04-03T04:45:19.950Z,6.10
2023-04-03T04:47:48.126Z,6.20
2023-04-03T04:50:16.246Z,6.30
2023-04-03T04:52:44.428Z,6.20
2023-04-03T04:55:12.557Z,6.30
2023-04-03T04:57:41.071Z,6.30
2023-04-03T05:00:12.203Z,6.20
2023-04-03T05:02:40.417Z,6.30
2023-04-03T05:05:09.540Z,6.30
2023-04-03T05:07:37.767Z,6.30
2023-04-03T05:10:06.792Z,6.40
2023-04-03T05:12:35.122Z,6.30
2023-04-03T05:15:03.266Z,6.30
2023-04-03T05:17:32.815Z,6.30
2023-04-03T05:20:00.933Z,6.30
2023-04-03T05:22:29.101Z,6.30
2023-04-03T05:24:57.236Z,6.40
2023-04-03T05:27:25.896Z,6.30
2023-04-03T05:29:55.548Z,6.40
2023-04-03T05:32:23.849Z,6.40
2023-04-03T05:34:53.712Z,6.30
2023-04-03T05:37:22.034Z,6.30
2023-04-03T05:39:50.676Z,6.30
2023-04-03T05:42:18.846Z,6.30
2023-04-03T05:44:48.140Z,6.40
2023-04-03T05:47:16.444Z,6.40
2023-04-03T05:49:46.396Z,6.40
2023-04-03T05:52:23.323Z,6.40
2023-04-03T05:54:51.665Z,6.40
2023-04-03T05:57:20.682Z,6.30
2023-04-03T05:59:49.607Z,6.30
2023-04-03T06:02:19.504Z,6.40
2023-04-03T06:04:48.867Z,6.40
2023-04-03T06:07:22.033Z,6.50
2023-04-03T06:09:50.670Z,6.40
2023-04-03T06:12:18.985Z,6.40
2023-04-03T06:14:47.653Z,6.50
2023-04-03T06:17:17.026Z,6.60
2023-04-03T06:19:45.584Z,6.50
2023-04-03T06:22:14.067Z,6.50
2023-04-03T06:24:44.759Z,6.60
2023-04-03T06:27:13.448Z,6.50
2023-04-03T06:29:41.631Z,6.40
2023-04-03T06:32:09.887Z,6.30
2023-04-03T06:34:38.212Z,6.20
2023-04-03T06:37:06.343Z,6.10
2023-04-03T06:39:34.689Z,6.20
2023-04-03T06:42:04.388Z,6.20
2023-04-03T06:44:34.906Z,6.30
2023-04-03T06:47:03.332Z,6.40
2023-04-03T06:49:31.572Z,6.40
2023-04-03T06:52:01.721Z,6.30
2023-04-03T06:54:30.795Z,6.40
2023-04-03T06:56:59.065Z,6.30
2023-04-03T06:59:28.654Z,6.20
2023-04-03T07:01:56.861Z,6.20
2023-04-03T07:04:25.070Z,6.40
2023-04-03T07:06:53.497Z,6.40
2023-04-03T07:09:22.652Z,6.50
2023-04-03T07:11:51.153Z,6.40
2023-04-03T07:14:20.524Z,6.50
2023-04-03T07:16:50.025Z,6.60
2023-04-03T07:19:19.310Z,6.50
2023-04-03T07:21:47.645Z,6.40
2023-04-03T07:24:17.609Z,6.50
2023-04-03T07:26:46.444Z,6.40
2023-04-03T07:29:15.122Z,6.60
2023-04-03T07:31:43.654Z,6.70
2023-04-03T07:34:13.235Z,6.90
2023-04-03T07:36:41.855Z,6.90
2023-04-03T07:39:10.022Z,6.80
2023-04-03T07:41:38.179Z,6.80
2023-04-03T07:44:06.785Z,6.80
2023-04-03T07:46:34.952Z,6.90
2023-04-03T07:49:03.330Z,6.90
2023-04-03T07:51:32.842Z,7.30
2023-04-03T07:54:01.089Z,7.20
2023-04-03T07:56:29.435Z,7.10
2023-04-03T07:58:57.620Z,7.10
2023-04-03T08:01:26.124Z,7.10
2023-04-03T08:03:54.427Z,7.30
2023-04-03T08:06:33.063Z,7.60
2023-04-03T08:09:12.014Z,7.60
2023-04-03T08:11:41.266Z,7.60
2023-04-03T08:14:12.028Z,7.70
2023-04-03T08:16:41.356Z,8.10
2023-04-03T08:19:18.795Z,7.90
2023-04-03T08:21:55.016Z,7.80
2023-04-03T08:24:25.545Z,7.70
2023-04-03T08:26:55.495Z,7.90
2023-04-03T08:29:26.672Z,7.90
2023-04-03T08:31:55.950Z,7.80
2023-04-03T08:37:07.901Z,7.50
2023-04-03T08:39:38.404Z,7.20
2023-04-03T08:42:18.560Z,7.30
2023-04-03T08:44:58.670Z,7.50
2023-04-03T08:47:39.433Z,7.60
2023-04-03T08:50:14.739Z,7.30
2023-04-03T08:52:48.847Z,7.30
2023-04-03T08:55:26.612Z,7.40
2023-04-03T08:58:03.098Z,7.60
2023-04-03T09:00:37.958Z,7.50
2023-04-03T09:03:06.841Z,7.80
2023-04-03T09:05:45.642Z,7.60
2023-04-03T09:08:24.574Z,7.80
2023-04-03T09:11:08.845Z,8.00
2023-04-03T09:13:49.646Z,8.10
2023-04-03T09:16:31.614Z,7.60
2023-04-03T09:19:10.580Z,7.80
2023-04-03T09:21:46.669Z,7.80
2023-04-03T09:24:18.693Z,7.60
2023-04-03T09:26:54.197Z,7.70
2023-04-03T09:29:25.766Z,7.70
2023-04-03T09:32:02.356Z,8.10
2023-04-03T09:34:37.629Z,8.40
2023-04-03T09:37:08.573Z,8.10
2023-04-03T09:39:56.621Z,8.20
2023-04-03T09:42:28.915Z,8.30
2023-04-03T09:45:02.882Z,8.30
2023-04-03T09:47:34.535Z,8.30
2023-04-03T09:50:22.157Z,8.20
2023-04-03T09:52:55.216Z,7.90
2023-04-03T09:55:28.809Z,8.10
2023-04-03T09:58:02.539Z,7.90
2023-04-03T10:00:38.103Z,7.90
2023-04-03T10:03:09.165Z,7.50
2023-04-03T10:05:44.784Z,7.60
2023-04-03T10:08:27.466Z,7.80
2023-04-03T10:11:12.328Z,8.00
2023-04-03T10:13:55.324Z,8.00
2023-04-03T10:16:29.503Z,7.90
2023-04-03T10:19:15.461Z,8.00
2023-04-03T10:21:51.925Z,8.00
2023-04-03T10:24:29.066Z,8.20
2023-04-03T10:27:03.476Z,8.00
2023-04-03T10:29:44.082Z,8.00
2023-04-03T10:32:40.286Z,7.90
2023-04-03T10:35:19.326Z,7.80
2023-04-03T10:38:02.725Z,7.90
2023-04-03T10:40:38.610Z,8.10
2023-04-03T10:43:18.755Z,8.10
2023-04-03T10:45:55.687Z,8.20
2023-04-03T10:48:35.775Z,8.00
2023-04-03T10:51:12.329Z,8.20
2023-04-03T10:53:51.542Z,8.10
2023-04-03T10:56:27.062Z,8.20
2023-04-03T10:58:59.938Z,8.30
2023-04-03T11:01:35.717Z,8.40
2023-04-03T11:04:08.985Z,8.40
2023-04-03T11:06:43.339Z,8.30
2023-04-03T11:09:22.125Z,8.50
2023-04-03T11:11:52.990Z,8.50
2023-04-03T11:14:28.237Z,8.60
2023-04-03T11:17:07.919Z,8.60
2023-04-03T11:19:41.182Z,8.60
2023-04-03T11:22:18.245Z,8.60
2023-04-03T11:24:53.523Z,8.80
2023-04-03T11:27:26.255Z,8.70
2023-04-03T11:29:56.550Z,8.60
2023-04-03T11:32:46.692Z,8.70
2023-04-03T11:35:15.679Z,8.40
2023-04-03T11:37:48.014Z,8.20
2023-04-03T11:40:24.778Z,8.40
2023-04-03T11:42:57.740Z,8.80
2023-04-03T11:45:37.091Z,8.60
2023-04-03T11:48:21.220Z,8.50
2023-04-03T11:50:53.008Z,8.80
2023-04-03T11:53:36.592Z,8.80
2023-04-03T11:56:27.802Z,8.60
2023-04-03T11:59:19.465Z,8.40
2023-04-03T12:01:49.288Z,8.50
2023-04-03T12:04:20.403Z,8.60
2023-04-03T12:07:00.277Z,8.90
2023-04-03T12:09:45.394Z,9.10
2023-04-03T12:12:34.982Z,9.40
2023-04-03T12:15:24.996Z,9.20
2023-04-03T12:17:53.884Z,8.90
2023-04-03T12:20:58.381Z,8.50
2023-04-03T12:23:32.639Z,8.30
2023-04-03T12:26:07.631Z,8.40
2023-04-03T12:28:41.566Z,8.30
2023-04-03T12:31:13.725Z,8.20
2023-04-03T12:34:03.576Z,8.60
2023-04-03T12:36:44.944Z,8.70
2023-04-03T12:39:28.790Z,9.00
2023-04-03T12:42:06.168Z,8.90
2023-04-03T12:44:45.837Z,8.70
2023-04-03T12:47:25.544Z,8.70
2023-04-03T12:49:56.282Z,8.40
2023-04-03T12:52:36.680Z,8.40
2023-04-03T12:55:11.224Z,8.50
2023-04-03T12:57:39.460Z,8.30
2023-04-03T13:00:36.481Z,8.10
2023-04-03T13:03:06.897Z,8.20
2023-04-03T13:05:37.168Z,8.10
2023-04-03T13:08:12.060Z,8.20
2023-04-03T13:10:50.107Z,8.30
2023-04-03T13:13:18.504Z,8.10
2023-04-03T13:15:49.989Z,8.20
2023-04-03T13:18:30.997Z,8.10
2023-04-03T13:21:03.804Z,8.30
2023-04-03T13:23:34.374Z,8.40
2023-04-03T13:26:04.626Z,8.70
2023-04-03T13:28:35.333Z,8.60
2023-04-03T13:31:08.322Z,8.60
2023-04-03T13:33:39.747Z,8.60
2023-04-03T13:36:13.196Z,8.80
2023-04-03T13:38:42.732Z,8.80
2023-04-03T13:41:27.441Z,8.90
2023-04-03T13:44:03.429Z,8.80
2023-04-03T13:46:35.108Z,8.90
2023-04-03T13:49:20.362Z,8.70
2023-04-03T13:51:54.198Z,8.40
2023-04-03T13:54:37.751Z,8.40
2023-04-03T13:57:14.902Z,8.30
2023-04-03T13:59:44.219Z,8.00
2023-04-03T14:02:19.966Z,8.10
2023-04-03T14:04:54.188Z,8.30
2023-04-03T14:07:22.484Z,8.20
2023-04-03T14:09:52.200Z,8.20
2023-04-03T14:12:31.318Z,8.30
2023-04-03T14:15:00.860Z,8.40
2023-04-03T14:17:29.568Z,8.40
2023-04-03T14:19:59.841Z,8.40
2023-04-03T14:22:31.320Z,8.40
2023-04-03T14:25:01.567Z,8.30
2023-04-03T14:27:31.699Z,8.20
2023-04-03T14:30:01.361Z,8.30
2023-04-03T14:32:29.617Z,8.40
2023-04-03T14:34:59.157Z,8.40
2023-04-03T14:37:30.274Z,8.20
2023-04-03T14:40:01.513Z,8.00
2023-04-03T14:42:32.062Z,8.10
2023-04-03T14:45:01.268Z,8.20
2023-04-03T14:47:32.900Z,8.20
2023-04-03T14:50:02.087Z,7.90
2023-04-03T14:52:32.787Z,7.80
2023-04-03T14:55:03.547Z,7.90
2023-04-03T14:57:32.525Z,7.80
2023-04-03T15:00:01.845Z,7.90
2023-04-03T15:02:33.670Z,7.90
2023-04-03T15:05:05.147Z,7.80
2023-04-03T15:07:36.199Z,7.80
2023-04-03T15:10:17.129Z,7.60
2023-04-03T15:12:45.991Z,7.70
2023-04-03T15:15:14.500Z,7.90
2023-04-03T15:17:43.654Z,7.90
2023-04-03T15:20:16.624Z,8.00
2023-04-03T15:22:45.053Z,8.20
2023-04-03T15:25:15.023Z,8.30
2023-04-03T15:27:43.650Z,8.30
2023-04-03T15:30:18.145Z,8.10
2023-04-03T15:32:46.450Z,8.10
2023-04-03T15:35:14.880Z,7.90
2023-04-03T15:37:43.050Z,7.90
2023-04-03T15:40:11.905Z,7.90
2023-04-03T15:42:41.921Z,7.80
2023-04-03T15:45:11.269Z,7.50
2023-04-03T15:47:39.708Z,7.50
2023-04-03T15:50:09.077Z,7.50
2023-04-03T15:52:37.983Z,7.30
2023-04-03T15:55:07.032Z,7.40
2023-04-03T16:00:11.158Z,7.50
2023-04-03T16:02:39.574Z,7.50
2023-04-03T16:05:09.134Z,7.50
2023-04-03T16:07:38.772Z,7.50
2023-04-03T16:10:07.806Z,7.40
2023-04-03T16:12:36.057Z,7.50
2023-04-03T16:15:05.144Z,7.30
2023-04-03T16:17:36.232Z,7.50
2023-04-03T16:20:05.586Z,7.60
2023-04-03T16:22:34.705Z,7.60
2023-04-03T16:25:02.895Z,7.60
2023-04-03T16:27:31.942Z,7.60
2023-04-03T16:30:00.460Z,7.50
2023-04-03T16:32:31.814Z,7.40
2023-04-03T16:37:31.890Z,7.30
2023-04-03T16:40:01.028Z,7.10
2023-04-03T16:42:29.153Z,7.00
2023-04-03T16:44:57.278Z,7.10
2023-04-03T16:47:25.484Z,7.20
2023-04-03T16:49:53.902Z,7.20
2023-04-03T16:52:23.515Z,7.20
2023-04-03T16:54:56.217Z,7.20
2023-04-03T16:57:25.813Z,7.10
2023-04-03T16:59:54.863Z,7.10
2023-04-03T17:02:25.593Z,6.90
2023-04-03T17:04:53.941Z,6.90
2023-04-03T17:07:25.564Z,6.80
2023-04-03T17:09:54.927Z,6.80
2023-04-03T17:12:24.095Z,6.80
2023-04-03T17:14:52.250Z,6.80
2023-04-03T17:17:24.440Z,6.70
2023-04-03T17:19:54.846Z,6.60
2023-04-03T17:22:24.571Z,6.60
2023-04-03T17:24:52.732Z,6.70
2023-04-03T17:27:20.934Z,6.70
2023-04-03T17:29:49.233Z,6.70
2023-04-03T17:32:17.520Z,6.60
2023-04-03T17:34:47.751Z,6.60
2023-04-03T17:37:16.110Z,6.60
2023-04-03T17:39:47.011Z,6.60
2023-04-03T17:42:15.177Z,6.60
2023-04-03T17:44:43.334Z,6.60
2023-04-03T17:47:11.637Z,6.60
2023-04-03T17:49:39.816Z,6.70
2023-04-03T17:52:07.933Z,6.70
2023-04-03T17:54:36.291Z,6.60
2023-04-03T17:57:05.934Z,6.60
2023-04-03T17:59:34.463Z,6.50
2023-04-03T18:02:02.839Z,6.50
2023-04-03T18:04:31.930Z,6.40
2023-04-03T18:07:00.203Z,6.20
2023-04-03T18:09:32.025Z,6.30
2023-04-03T18:12:03.426Z,6.30
2023-04-03T18:14:35.306Z,6.40
2023-04-03T18:17:03.762Z,6.50
2023-04-03T18:19:31.911Z,6.60
2023-04-03T18:22:03.505Z,6.40
2023-04-03T18:24:34.393Z,6.30
2023-04-03T18:27:06.153Z,6.20
2023-04-03T18:29:38.338Z,6.20
2023-04-03T18:32:08.924Z,6.10
2023-04-03T18:34:38.181Z,6.10
2023-04-03T18:37:06.891Z,6.00
2023-04-03T18:39:35.298Z,6.00
2023-04-03T18:42:09.633Z,6.10
2023-04-03T18:44:40.866Z,6.10
2023-04-03T18:47:09.798Z,6.10
2023-04-03T18:49:40.907Z,6.10
2023-04-03T18:52:10.323Z,6.00
2023-04-03T18:54:38.648Z,6.10
2023-04-03T18:57:07.268Z,5.90
2023-04-03T18:59:35.663Z,6.00
2023-04-03T19:02:05.754Z,6.10
2023-04-03T19:04:34.269Z,6.20
2023-04-03T19:07:05.567Z,6.00
2023-04-03T19:09:34.245Z,6.00
2023-04-03T19:12:02.790Z,5.90
2023-04-03T19:14:30.944Z,5.90
2023-04-03T19:16:59.273Z,5.80
2023-04-03T19:19:28.809Z,5.70
2023-04-03T19:21:56.939Z,5.70
2023-04-03T19:24:25.141Z,5.60
2023-04-03T19:26:53.264Z,5.60
2023-04-03T19:29:21.973Z,5.60
2023-04-03T19:31:50.126Z,5.60
2023-04-03T19:34:18.234Z,5.50
2023-04-03T19:36:49.515Z,5.50
2023-04-03T19:39:17.757Z,5.50
2023-04-03T19:41:46.260Z,5.40
2023-04-03T19:44:14.453Z,5.30
2023-04-03T19:46:50.981Z,5.30
2023-04-03T19:49:20.226Z,5.20
2023-04-03T19:51:49.833Z,5.10
2023-04-03T19:54:18.061Z,5.10
2023-04-03T19:56:46.404Z,5.10
2023-04-03T19:59:15.008Z,5.10
2023-04-03T20:01:43.324Z,5.10
2023-04-03T20:04:11.603Z,5.10
2023-04-03T20:06:39.761Z,5.00
2023-04-03T20:09:09.388Z,4.90
2023-04-03T20:11:37.911Z,5.00
2023-04-03T20:14:06.911Z,4.90
2023-04-03T20:16:35.739Z,5.00
2023-04-03T20:19:05.213Z,5.00
2023-04-03T20:21:34.829Z,4.90
2023-04-03T20:24:04.741Z,4.80
2023-04-03T20:26:37.363Z,4.70
2023-04-03T20:29:05.717Z,4.70
2023-04-03T20:31:34.032Z,4.60
2023-04-03T20:34:03.149Z,4.60
2023-04-03T20:36:31.859Z,4.60
2023-04-03T20:39:00.172Z,4.60
2023-04-03T20:41:28.500Z,4.50
2023-04-03T20:44:00.418Z,4.40
2023-04-03T20:46:42.232Z,4.40
2023-04-03T20:49:17.828Z,4.20
2023-04-03T20:51:46.122Z,4.20
2023-04-03T20:54:14.771Z,4.10
2023-04-03T20:56:44.251Z,3.90
2023-04-03T20:59:15.532Z,3.90
2023-04-03T21:01:44.144Z,3.80
2023-04-03T21:04:17.186Z,3.60
2023-04-03T21:07:22.854Z,3.60
2023-04-03T21:10:28.505Z,3.60
2023-04-03T21:13:34.843Z,3.50
2023-04-03T21:16:02.976Z,3.40
2023-04-03T21:18:55.182Z,3.40
2023-04-03T21:21:24.604Z,3.40
2023-04-03T21:23:54.355Z,3.30
2023-04-03T21:26:23.519Z,3.20
2023-04-03T21:28:53.089Z,3.20
2023-04-03T21:31:22.294Z,3.10
2023-04-03T21:33:52.329Z,3.00
2023-04-03T21:36:20.422Z,2.80
2023-04-03T21:38:50.055Z,2.80
2023-04-03T21:41:18.203Z,2.70
2023-04-03T21:43:47.931Z,2.60
2023-04-03T21:46:16.324Z,2.60
2023-04-03T21:48:47.117Z,2.60
2023-04-03T21:51:17.376Z,2.60
2023-04-03T21:53:46.633Z,2.50
2023-04-03T21:56:14.823Z,2.50
2023-04-03T21:58:42.992Z,2.50
2023-04-03T22:01:11.897Z,2.50
2023-04-03T22:03:41.507Z,2.40
2023-04-03T22:06:10.138Z,2.40
2023-04-03T22:08:40.154Z,2.20
2023-04-03T22:11:11.096Z,2.20
2023-04-03T22:13:39.484Z,2.10
2023-04-03T22:16:08.284Z,2.10
2023-04-03T22:18:36.913Z,2.10
2023-04-03T22:21:06.021Z,2.10
2023-04-03T22:23:34.190Z,2.20
2023-04-03T22:26:05.871Z,2.10
2023-04-03T22:28:36.479Z,2.10
2023-04-03T22:31:07.444Z,2.00
2023-04-03T22:33:36.516Z,1.90
2023-04-03T22:36:05.685Z,1.80
2023-04-03T22:38:34.213Z,1.80
2023-04-03T22:41:05.238Z,1.70
2023-04-03T22:43:34.842Z,1.70
2023-04-03T22:46:04.200Z,1.70
2023-04-03T22:48:33.528Z,1.70
2023-04-03T22:51:02.339Z,1.60
2023-04-03T22:53:30.513Z,1.50
2023-04-03T22:55:59.120Z,1.60
2023-04-03T22:58:29.092Z,1.50
2023-04-03T23:01:05.476Z,1.60
2023-04-03T23:03:34.078Z,1.60
2023-04-03T23:06:03.542Z,1.50
2023-04-03T23:08:32.642Z,1.50
2023-04-03T23:11:01.443Z,1.50
2023-04-03T23:13:31.126Z,1.60
2023-04-03T23:16:00.827Z,1.40
2023-04-03T23:18:31.760Z,1.40
2023-04-03T23:21:01.557Z,1.50
2023-04-03T23:23:30.052Z,1.50
2023-04-03T23:25:59.790Z,1.50
2023-04-03T23:28:28.385Z,1.40
2023-04-03T23:31:01.818Z,1.30
2023-04-03T23:33:30.822Z,1.30
2023-04-03T23:36:01.870Z,1.30
2023-04-03T23:38:30.021Z,1.30
2023-04-03T23:40:58.163Z,1.30
2023-04-03T23:43:26.277Z,1.20
2023-04-03T23:45:54.472Z,1.20
2023-04-03T23:48:23.995Z,1.00
2023-04-03T23:50:52.222Z,1.10
2023-04-03T23:53:20.373Z,1.10
2023-04-03T23:55:48.544Z,1.10
2023-04-03T23:58:16.710Z,1.10
